createdAt,value
2018-03-19T00:02:23.373Z,101519.10
2018-03-19T00:04:51.063Z,101516.06
2018-03-19T00:07:18.727Z,101518.19
2018-03-19T00:09:46.372Z,101521.19
2018-03-19T00:12:14.235Z,101521.68
2018-03-19T00:14:41.846Z,101521.47
2018-03-19T00:17:09.423Z,101523.33
2018-03-19T00:19:37.228Z,101520.09
2018-03-19T00:22:04.816Z,101517.92
2018-03-19T00:24:32.506Z,101515.36
2018-03-19T00:27:00.429Z,101513.72
2018-03-19T00:29:28.215Z,101513.94
2018-03-19T00:31:55.920Z,101517.51
2018-03-19T00:34:23.549Z,101515.69
2018-03-19T00:36:51.366Z,101517.44
2018-03-19T00:39:18.972Z,101513.25
2018-03-19T00:41:46.588Z,101518.27
2018-03-19T00:44:14.254Z,101512.44
2018-03-19T00:46:41.925Z,101514.79
2018-03-19T00:49:09.569Z,101507.66
2018-03-19T00:51:37.329Z,101509.10
2018-03-19T00:54:04.922Z,101501.73
2018-03-19T00:56:32.518Z,101510.32
2018-03-19T00:59:00.147Z,101505.01
2018-03-19T01:01:27.821Z,101497.86
2018-03-19T01:03:55.776Z,101495.52
2018-03-19T01:06:23.392Z,101499.83
2018-03-19T01:08:50.962Z,101503.59
2018-03-19T01:11:18.615Z,101512.48
2018-03-19T01:13:46.436Z,101504.61
2018-03-19T01:16:14.082Z,101510.26
2018-03-19T01:18:41.968Z,101508.73
2018-03-19T01:21:09.555Z,101515.05
2018-03-19T01:23:37.132Z,101513.73
2018-03-19T01:26:04.740Z,101513.34
2018-03-19T01:28:32.545Z,101521.59
2018-03-19T01:31:00.166Z,101514.57
2018-03-19T01:33:27.764Z,101503.53
2018-03-19T01:35:55.332Z,101499.97
2018-03-19T01:38:22.959Z,101504.78
2018-03-19T01:40:50.530Z,101502.23
2018-03-19T01:43:18.130Z,101511.84
2018-03-19T01:45:45.746Z,101506.45
2018-03-19T01:48:13.307Z,101509.80
2018-03-19T01:50:40.876Z,101501.94
2018-03-19T01:53:08.478Z,101507.47
2018-03-19T01:55:36.184Z,101498.70
2018-03-19T01:58:03.797Z,101498.28
2018-03-19T02:00:31.367Z,101504.30
2018-03-19T02:03:06.683Z,101497.66
2018-03-19T02:05:34.240Z,101501.63
2018-03-19T02:08:01.845Z,101501.16
2018-03-19T02:10:29.549Z,101506.74
2018-03-19T02:12:57.350Z,101501.16
2018-03-19T02:15:25.033Z,101499.52
2018-03-19T02:17:52.899Z,101496.66
2018-03-19T02:20:20.500Z,101504.02
2018-03-19T02:22:48.168Z,101501.44
2018-03-19T02:25:15.804Z,101497.06
2018-03-19T02:27:43.414Z,101494.20
2018-03-19T02:30:11.109Z,101498.19
2018-03-19T02:32:38.883Z,101495.75
2018-03-19T02:35:06.562Z,101495.23
2018-03-19T02:37:34.229Z,101494.33
2018-03-19T02:40:01.931Z,101496.45
2018-03-19T02:42:29.489Z,101491.27
2018-03-19T02:44:57.437Z,101499.02
2018-03-19T02:47:25.146Z,101506.28
2018-03-19T02:49:52.718Z,101505.97
2018-03-19T02:52:20.350Z,101498.22
2018-03-19T02:54:47.998Z,101498.11
2018-03-19T02:57:15.573Z,101502.51
2018-03-19T02:59:43.276Z,101507.50
2018-03-19T03:02:11.016Z,101507.09
2018-03-19T03:04:38.714Z,101506.98
2018-03-19T03:07:06.452Z,101507.09
2018-03-19T03:09:34.139Z,101501.27
2018-03-19T03:12:01.723Z,101506.88
2018-03-19T03:14:29.479Z,101509.43
2018-03-19T03:16:57.189Z,101513.30
2018-03-19T03:19:25.174Z,101505.14
2018-03-19T03:21:52.863Z,101519.73
2018-03-19T03:24:20.551Z,101521.99
2018-03-19T03:26:48.298Z,101520.87
2018-03-19T03:29:16.002Z,101520.45
2018-03-19T03:31:43.592Z,101520.03
2018-03-19T03:34:11.211Z,101521.15
2018-03-19T03:36:38.886Z,101522.58
2018-03-19T03:39:06.542Z,101518.70
2018-03-19T03:41:34.158Z,101518.00
2018-03-19T03:44:01.743Z,101516.26
2018-03-19T03:46:29.474Z,101520.55
2018-03-19T03:48:57.086Z,101520.66
2018-03-19T03:51:24.795Z,101522.47
2018-03-19T03:53:52.424Z,101516.36
2018-03-19T03:56:20.316Z,101525.53
2018-03-19T03:58:48.043Z,101524.41
2018-03-19T04:01:15.632Z,101524.72
2018-03-19T04:03:43.319Z,101525.32
2018-03-19T04:06:11.018Z,101525.11
2018-03-19T04:08:38.665Z,101519.00
2018-03-19T04:11:06.593Z,101522.88
2018-03-19T04:13:34.144Z,101523.39
2018-03-19T04:16:01.846Z,101524.61
2018-03-19T04:18:29.439Z,101528.59
2018-03-19T04:20:57.349Z,101526.62
2018-03-19T04:23:25.269Z,101535.70
2018-03-19T04:25:52.946Z,101526.83
2018-03-19T04:28:20.661Z,101526.20
2018-03-19T04:30:48.294Z,101530.16
2018-03-19T04:33:15.870Z,101531.01
2018-03-19T04:35:43.490Z,101528.84
2018-03-19T04:38:11.103Z,101528.55
2018-03-19T04:40:38.947Z,101524.06
2018-03-19T04:43:06.571Z,101527.12
2018-03-19T04:45:34.451Z,101525.40
2018-03-19T04:48:02.056Z,101531.59
2018-03-19T04:50:29.687Z,101535.45
2018-03-19T04:52:57.414Z,101537.71
2018-03-19T04:55:25.002Z,101531.58
2018-03-19T04:57:52.590Z,101537.41
2018-03-19T05:00:20.259Z,101530.14
2018-03-19T05:02:47.989Z,101533.99
2018-03-19T05:05:15.573Z,101531.86
2018-03-19T05:07:43.234Z,101537.78
2018-03-19T05:10:10.878Z,101538.38
2018-03-19T05:12:38.441Z,101531.55
2018-03-19T05:15:06.320Z,101529.80
2018-03-19T05:17:33.932Z,101533.17
2018-03-19T05:20:01.533Z,101538.48
2018-03-19T05:22:29.204Z,101542.66
2018-03-19T05:24:56.832Z,101542.77
2018-03-19T05:27:24.744Z,101545.10
2018-03-19T05:29:52.355Z,101546.30
2018-03-19T05:32:20.377Z,101538.87
2018-03-19T05:34:47.998Z,101545.27
2018-03-19T05:37:15.675Z,101540.20
2018-03-19T05:39:43.311Z,101551.17
2018-03-19T05:42:10.915Z,101556.16
2018-03-19T05:44:38.508Z,101554.61
2018-03-19T05:47:06.204Z,101561.63
2018-03-19T05:49:34.024Z,101557.84
2018-03-19T05:52:01.709Z,101564.58
2018-03-19T05:54:29.441Z,101558.38
2018-03-19T05:56:57.103Z,101565.00
2018-03-19T05:59:24.843Z,101566.82
2018-03-19T06:01:52.440Z,101565.20
2018-03-19T06:04:20.152Z,101581.59
2018-03-19T06:06:47.736Z,101580.50
2018-03-19T06:09:15.388Z,101581.91
2018-03-19T06:11:43.034Z,101578.59
2018-03-19T06:14:10.773Z,101587.14
2018-03-19T06:16:38.610Z,101583.36
2018-03-19T06:19:06.251Z,101582.84
2018-03-19T06:21:34.144Z,101583.48
2018-03-19T06:24:01.702Z,101597.02
2018-03-19T06:26:29.346Z,101592.24
2018-03-19T06:28:56.976Z,101595.53
2018-03-19T06:31:24.592Z,101601.65
2018-03-19T06:33:52.166Z,101596.09
2018-03-19T06:36:19.812Z,101602.80
2018-03-19T06:38:47.721Z,101606.09
2018-03-19T06:41:15.303Z,101600.30
2018-03-19T06:43:43.161Z,101603.08
2018-03-19T06:46:10.746Z,101609.63
2018-03-19T06:48:38.355Z,101600.39
2018-03-19T06:51:05.921Z,101601.81
2018-03-19T06:53:33.613Z,101611.11
2018-03-19T06:56:01.270Z,101611.54
2018-03-19T06:58:28.828Z,101614.52
2018-03-19T07:00:56.502Z,101606.56
2018-03-19T07:03:24.209Z,101613.20
2018-03-19T07:05:51.866Z,101615.45
2018-03-19T07:08:19.485Z,101619.05
2018-03-19T07:10:47.100Z,101620.08
2018-03-19T07:13:15.168Z,101618.33
2018-03-19T07:15:42.911Z,101623.53
2018-03-19T07:18:10.541Z,101621.72
2018-03-19T07:20:38.178Z,101619.38
2018-03-19T07:23:05.952Z,101622.94
2018-03-19T07:25:33.865Z,101625.70
2018-03-19T07:28:01.473Z,101630.37
2018-03-19T07:30:29.190Z,101628.45
2018-03-19T07:32:56.766Z,101623.65
2018-03-19T07:35:25.126Z,101627.52
2018-03-19T07:37:53.211Z,101629.64
2018-03-19T07:40:21.016Z,101622.77
2018-03-19T07:42:48.652Z,101632.80
2018-03-19T07:45:16.576Z,101627.05
2018-03-19T07:47:44.265Z,101633.08
2018-03-19T07:50:11.926Z,101624.47
2018-03-19T07:52:39.670Z,101630.90
2018-03-19T07:55:07.505Z,101629.03
2018-03-19T07:57:35.180Z,101616.27
2018-03-19T08:00:02.871Z,101621.39
2018-03-19T08:02:30.749Z,101627.64
2018-03-19T08:04:58.330Z,101620.41
2018-03-19T08:07:25.953Z,101629.23
2018-03-19T08:09:53.620Z,101634.72
2018-03-19T08:12:21.501Z,101642.48
2018-03-19T08:14:49.114Z,101639.97
2018-03-19T08:17:16.791Z,101639.45
2018-03-19T08:19:44.409Z,101647.53
2018-03-19T08:22:12.062Z,101645.77
2018-03-19T08:24:39.796Z,101625.95
2018-03-19T08:27:08.448Z,101639.39
2018-03-19T08:29:36.173Z,101635.84
2018-03-19T08:32:04.018Z,101639.97
2018-03-19T08:34:31.676Z,101641.44
2018-03-19T08:36:59.280Z,101637.78
2018-03-19T08:39:27.062Z,101632.23
2018-03-19T08:41:54.829Z,101632.22
2018-03-19T08:44:22.720Z,101635.20
2018-03-19T08:46:50.323Z,101633.00
2018-03-19T08:49:18.074Z,101626.77
2018-03-19T08:51:45.885Z,101623.77
2018-03-19T08:54:13.817Z,101628.08
2018-03-19T08:56:41.453Z,101623.77
2018-03-19T08:59:09.048Z,101627.55
2018-03-19T09:01:36.639Z,101634.78
2018-03-19T09:04:04.301Z,101635.59
2018-03-19T09:06:31.916Z,101630.30
2018-03-19T09:08:59.837Z,101627.20
2018-03-19T09:11:27.730Z,101627.81
2018-03-19T09:13:55.355Z,101623.23
2018-03-19T09:16:22.941Z,101636.13
2018-03-19T09:18:50.673Z,101630.57
2018-03-19T09:21:18.253Z,101629.98
2018-03-19T09:23:45.821Z,101632.80
2018-03-19T09:26:13.473Z,101630.92
2018-03-19T09:28:41.148Z,101625.50
2018-03-19T09:31:08.858Z,101630.06
2018-03-19T09:33:36.637Z,101628.00
2018-03-19T09:36:04.253Z,101627.55
2018-03-19T09:38:31.838Z,101621.43
2018-03-19T09:40:59.528Z,101626.78
2018-03-19T09:43:27.207Z,101631.17
2018-03-19T09:45:54.772Z,101629.11
2018-03-19T09:48:22.416Z,101627.46
2018-03-19T09:50:50.016Z,101635.08
2018-03-19T09:53:17.608Z,101622.33
2018-03-19T09:55:45.405Z,101623.91
2018-03-19T09:58:13.001Z,101619.33
2018-03-19T10:00:40.701Z,101617.76
2018-03-19T10:03:08.320Z,101616.00
2018-03-19T10:05:36.150Z,101620.86
2018-03-19T10:08:03.763Z,101619.67
2018-03-19T10:10:31.451Z,101620.41
2018-03-19T10:12:59.111Z,101620.80
2018-03-19T10:15:26.732Z,101615.84
2018-03-19T10:17:54.318Z,101611.47
2018-03-19T10:20:21.946Z,101606.73
2018-03-19T10:22:49.650Z,101612.41
2018-03-19T10:25:17.733Z,101621.69
2018-03-19T10:27:45.329Z,101611.23
2018-03-19T10:30:13.155Z,101611.52
2018-03-19T10:32:40.812Z,101607.50
2018-03-19T10:35:08.721Z,101607.81
2018-03-19T10:37:36.315Z,101611.66
2018-03-19T10:40:03.977Z,101602.78
2018-03-19T10:42:31.712Z,101602.91
2018-03-19T10:44:59.440Z,101605.91
2018-03-19T10:47:27.043Z,101604.68
2018-03-19T10:49:54.861Z,101597.70
2018-03-19T10:52:22.483Z,101589.37
2018-03-19T10:54:50.177Z,101592.94
2018-03-19T10:57:17.809Z,101600.83
2018-03-19T10:59:45.511Z,101606.52
2018-03-19T11:02:16.055Z,101598.95
2018-03-19T11:04:49.474Z,101608.41
2018-03-19T11:07:22.568Z,101608.09
2018-03-19T11:09:50.187Z,101594.52
2018-03-19T11:12:17.815Z,101597.58
2018-03-19T11:14:45.458Z,101596.50
2018-03-19T11:17:13.081Z,101594.61
2018-03-19T11:19:40.673Z,101588.20
2018-03-19T11:22:08.328Z,101596.70
2018-03-19T11:24:36.014Z,101584.78
2018-03-19T11:27:03.587Z,101596.06
2018-03-19T11:29:31.241Z,101592.31
2018-03-19T11:31:58.829Z,101584.23
2018-03-19T11:34:26.710Z,101585.52
2018-03-19T11:36:54.424Z,101590.03
2018-03-19T11:39:22.062Z,101582.20
2018-03-19T11:41:49.691Z,101579.14
2018-03-19T11:44:17.269Z,101576.56
2018-03-19T11:46:44.944Z,101577.62
2018-03-19T11:49:12.590Z,101572.70
2018-03-19T11:51:40.935Z,101583.38
2018-03-19T11:54:08.740Z,101587.19
2018-03-19T11:56:36.477Z,101584.38
2018-03-19T11:59:04.080Z,101580.61
2018-03-19T12:01:31.683Z,101577.38
2018-03-19T12:03:59.435Z,101579.17
2018-03-19T12:06:27.254Z,101575.80
2018-03-19T12:08:54.839Z,101570.77
2018-03-19T12:11:22.477Z,101580.19
2018-03-19T12:13:50.056Z,101575.23
2018-03-19T12:16:17.759Z,101571.21
2018-03-19T12:18:45.375Z,101568.83
2018-03-19T12:21:13.023Z,101563.82
2018-03-19T12:23:40.737Z,101560.02
2018-03-19T12:26:08.441Z,101557.58
2018-03-19T12:28:36.018Z,101558.30
2018-03-19T12:31:03.663Z,101558.36
2018-03-19T12:33:31.262Z,101557.69
2018-03-19T12:35:58.886Z,101557.41
2018-03-19T12:38:26.664Z,101560.08
2018-03-19T12:40:54.290Z,101560.95
2018-03-19T12:43:21.881Z,101561.86
2018-03-19T12:45:49.874Z,101564.48
2018-03-19T12:48:17.519Z,101556.55
2018-03-19T12:50:45.485Z,101554.69
2018-03-19T12:53:13.139Z,101552.17
2018-03-19T12:55:40.823Z,101551.47
2018-03-19T12:58:08.427Z,101545.06
2018-03-19T13:00:36.069Z,101546.45
2018-03-19T13:03:03.745Z,101544.55
2018-03-19T13:05:31.644Z,101545.19
2018-03-19T13:07:59.220Z,101549.26
2018-03-19T13:10:26.958Z,101541.83
2018-03-19T13:12:54.573Z,101538.56
2018-03-19T13:15:22.496Z,101537.69
2018-03-19T13:17:50.407Z,101537.09
2018-03-19T13:20:18.047Z,101533.72
2018-03-19T13:22:45.928Z,101540.12
2018-03-19T13:25:13.537Z,101539.94
2018-03-19T13:27:41.096Z,101534.89
2018-03-19T13:30:08.980Z,101528.19
2018-03-19T13:32:36.625Z,101525.65
2018-03-19T13:35:04.205Z,101531.39
2018-03-19T13:37:31.819Z,101526.17
2018-03-19T13:39:59.448Z,101528.50
2018-03-19T13:42:27.295Z,101518.08
2018-03-19T13:44:54.945Z,101523.61
2018-03-19T13:47:22.556Z,101526.86
2018-03-19T13:49:50.253Z,101526.16
2018-03-19T13:52:17.896Z,101524.39
2018-03-19T13:54:45.481Z,101526.97
2018-03-19T13:57:13.084Z,101520.86
2018-03-19T13:59:40.984Z,101523.44
2018-03-19T14:02:08.907Z,101525.16
2018-03-19T14:04:36.496Z,101527.07
2018-03-19T14:07:04.184Z,101520.69
2018-03-19T14:09:31.785Z,101512.64
2018-03-19T14:11:59.617Z,101522.75
2018-03-19T14:14:27.630Z,101520.59
2018-03-19T14:16:55.624Z,101518.15
2018-03-19T14:19:23.233Z,101515.82
2018-03-19T14:21:50.966Z,101516.20
2018-03-19T14:24:18.891Z,101510.76
2018-03-19T14:26:46.552Z,101515.27
2018-03-19T14:29:14.121Z,101512.95
2018-03-19T14:31:42.081Z,101512.08
2018-03-19T14:34:09.811Z,101519.96
2018-03-19T14:36:37.401Z,101516.00
2018-03-19T14:39:05.056Z,101508.95
2018-03-19T14:41:32.801Z,101509.73
2018-03-19T14:44:00.396Z,101508.20
2018-03-19T14:46:27.969Z,101509.75
2018-03-19T14:48:55.851Z,101504.86
2018-03-19T14:51:23.489Z,101505.48
2018-03-19T14:53:51.175Z,101503.87
2018-03-19T14:56:19.013Z,101510.86
2018-03-19T14:58:46.648Z,101501.09
2018-03-19T15:01:14.235Z,101496.91
2018-03-19T15:03:41.829Z,101489.98
2018-03-19T15:06:09.451Z,101499.66
2018-03-19T15:08:37.041Z,101491.66
2018-03-19T15:11:04.656Z,101478.77
2018-03-19T15:13:32.249Z,101482.37
2018-03-19T15:15:59.906Z,101490.95
2018-03-19T15:18:27.537Z,101487.55
2018-03-19T15:20:55.134Z,101487.81
2018-03-19T15:23:22.776Z,101480.45
2018-03-19T15:25:50.679Z,101478.27
2018-03-19T15:28:18.332Z,101470.47
2018-03-19T15:30:45.952Z,101476.92
2018-03-19T15:33:13.621Z,101477.34
2018-03-19T15:35:41.206Z,101484.30
2018-03-19T15:38:08.770Z,101480.98
2018-03-19T15:40:36.407Z,101484.66
2018-03-19T15:43:04.233Z,101492.55
2018-03-19T15:45:31.815Z,101481.76
2018-03-19T15:47:59.431Z,101483.55
2018-03-19T15:50:27.047Z,101478.88
2018-03-19T15:52:54.854Z,101482.53
2018-03-19T15:55:22.588Z,101486.18
2018-03-19T15:57:50.192Z,101486.88
2018-03-19T16:00:18.069Z,101491.60
2018-03-19T16:02:51.341Z,101487.30
2018-03-19T16:05:18.925Z,101487.92
2018-03-19T16:07:46.548Z,101497.19
2018-03-19T16:10:14.225Z,101495.78
2018-03-19T16:12:41.900Z,101496.31
2018-03-19T16:15:09.534Z,101493.30
2018-03-19T16:17:37.132Z,101494.05
2018-03-19T16:20:04.764Z,101494.10
2018-03-19T16:22:32.396Z,101496.31
2018-03-19T16:25:00.080Z,101492.72
2018-03-19T16:27:27.739Z,101499.78
2018-03-19T16:29:55.295Z,101487.89
2018-03-19T16:32:23.271Z,101490.28
2018-03-19T16:34:50.822Z,101492.86
2018-03-19T16:37:18.550Z,101493.86
2018-03-19T16:39:46.117Z,101500.38
2018-03-19T16:42:13.752Z,101497.01
2018-03-19T16:44:41.723Z,101503.83
2018-03-19T16:47:09.317Z,101502.44
2018-03-19T16:49:36.916Z,101509.36
2018-03-19T16:52:04.566Z,101504.37
2018-03-19T16:54:32.113Z,101504.32
2018-03-19T16:57:00.129Z,101507.65
2018-03-19T16:59:28.029Z,101510.88
2018-03-19T17:01:55.681Z,101509.55
2018-03-19T17:04:23.346Z,101514.16
2018-03-19T17:06:51.201Z,101515.22
2018-03-19T17:09:18.820Z,101512.38
2018-03-19T17:11:46.493Z,101520.82
2018-03-19T17:14:14.257Z,101520.70
2018-03-19T17:16:41.955Z,101524.53
2018-03-19T17:19:09.644Z,101532.10
2018-03-19T17:21:37.251Z,101535.09
2018-03-19T17:24:04.848Z,101537.55
2018-03-19T17:26:32.551Z,101542.72
2018-03-19T17:29:00.159Z,101552.92
2018-03-19T17:31:27.823Z,101550.48
2018-03-19T17:33:55.404Z,101550.30
2018-03-19T17:39:15.627Z,101559.08
2018-03-19T17:41:43.307Z,101564.39
2018-03-19T17:44:10.894Z,101564.47
2018-03-19T17:46:38.476Z,101565.34
2018-03-19T17:49:06.996Z,101567.12
2018-03-19T17:51:34.675Z,101569.69
2018-03-19T17:54:02.309Z,101563.46
2018-03-19T17:56:29.925Z,101578.06
2018-03-19T17:58:57.482Z,101578.36
2018-03-19T18:01:25.080Z,101577.66
2018-03-19T18:03:52.724Z,101585.14
2018-03-19T18:06:20.306Z,101583.83
2018-03-19T18:08:47.860Z,101587.13
2018-03-19T18:11:15.522Z,101584.38
2018-03-19T18:13:43.131Z,101586.52
2018-03-19T18:16:10.776Z,101590.95
2018-03-19T18:18:38.568Z,101585.99
2018-03-19T18:21:06.157Z,101596.06
2018-03-19T18:23:34.032Z,101604.20
2018-03-19T18:26:01.679Z,101602.80
2018-03-19T18:28:29.293Z,101613.04
2018-03-19T18:30:56.938Z,101618.65
2018-03-19T18:33:24.610Z,101618.94
2018-03-19T18:35:52.296Z,101626.66
2018-03-19T18:38:19.888Z,101623.23
2018-03-19T18:40:47.591Z,101622.64
2018-03-19T18:43:15.551Z,101627.35
2018-03-19T18:45:43.467Z,101628.32
2018-03-19T18:48:11.351Z,101631.53
2018-03-19T18:50:39.698Z,101618.97
2018-03-19T18:53:07.437Z,101619.49
2018-03-19T18:55:35.098Z,101620.23
2018-03-19T18:58:03.327Z,101622.45
2018-03-19T19:00:30.982Z,101612.97
2018-03-19T19:02:58.640Z,101620.06
2018-03-19T19:05:26.288Z,101625.91
2018-03-19T19:07:53.923Z,101623.88
2018-03-19T19:10:21.611Z,101630.36
2018-03-19T19:13:05.695Z,101631.81
2018-03-19T19:15:33.367Z,101635.80
2018-03-19T19:18:00.966Z,101632.25
2018-03-19T19:20:28.546Z,101636.99
2018-03-19T19:22:56.252Z,101635.89
2018-03-19T19:25:23.831Z,101639.94
2018-03-19T19:27:51.531Z,101635.80
2018-03-19T19:30:19.394Z,101646.09
2018-03-19T19:32:46.984Z,101644.70
2018-03-19T19:35:14.617Z,101655.53
2018-03-19T19:37:42.201Z,101657.25
2018-03-19T19:40:10.255Z,101654.55
2018-03-19T19:42:37.929Z,101660.66
2018-03-19T19:45:05.594Z,101660.63
2018-03-19T19:47:33.270Z,101661.47
2018-03-19T19:50:00.910Z,101653.99
2018-03-19T19:52:28.600Z,101661.27
2018-03-19T19:54:57.072Z,101661.58
2018-03-19T19:57:24.620Z,101657.73
2018-03-19T19:59:52.214Z,101657.08
2018-03-19T20:02:19.844Z,101655.06
2018-03-19T20:04:47.485Z,101653.42
2018-03-19T20:07:15.460Z,101661.95
2018-03-19T20:09:43.197Z,101660.81
2018-03-19T20:12:10.778Z,101652.01
2018-03-19T20:14:38.384Z,101653.27
2018-03-19T20:17:09.586Z,101654.94
2018-03-19T20:19:40.497Z,101658.52
2018-03-19T20:22:08.388Z,101658.06
2018-03-19T20:24:36.029Z,101658.26
2018-03-19T20:27:03.613Z,101661.48
2018-03-19T20:29:31.206Z,101654.33
2018-03-19T20:31:58.833Z,101651.31
2018-03-19T20:34:26.446Z,101655.73
2018-03-19T20:36:54.014Z,101656.26
2018-03-19T20:39:21.657Z,101647.37
2018-03-19T20:41:49.450Z,101657.13
2018-03-19T20:44:17.075Z,101655.94
2018-03-19T20:46:44.779Z,101647.17
2018-03-19T20:49:12.378Z,101645.15
2018-03-19T20:51:40.057Z,101639.27
2018-03-19T20:54:07.651Z,101632.08
2018-03-19T20:56:35.295Z,101627.91
2018-03-19T20:59:02.911Z,101629.14
2018-03-19T21:01:30.492Z,101631.34
2018-03-19T21:03:58.038Z,101636.13
2018-03-19T21:06:25.683Z,101630.92
2018-03-19T21:08:53.523Z,101626.92
2018-03-19T21:11:22.272Z,101618.62
2018-03-19T21:13:49.864Z,101611.77
2018-03-19T21:16:17.456Z,101613.84
2018-03-19T21:18:45.088Z,101619.18
2018-03-19T21:21:12.686Z,101625.15
2018-03-19T21:23:40.278Z,101618.71
2018-03-19T21:26:07.933Z,101619.02
2018-03-19T21:28:35.600Z,101611.39
2018-03-19T21:31:03.171Z,101628.56
2018-03-19T21:33:32.839Z,101618.08
2018-03-19T21:36:00.474Z,101620.74
2018-03-19T21:38:28.355Z,101619.87
2018-03-19T21:40:56.004Z,101619.58
2018-03-19T21:43:23.630Z,101623.43
2018-03-19T21:45:51.338Z,101620.20
2018-03-19T21:48:19.084Z,101609.20
2018-03-19T21:50:46.672Z,101611.04
2018-03-19T21:53:14.589Z,101614.70
2018-03-19T21:55:42.477Z,101610.36
2018-03-19T21:58:10.037Z,101614.67
2018-03-19T22:00:37.696Z,101609.11
2018-03-19T22:03:05.322Z,101610.22
2018-03-19T22:05:33.000Z,101604.21
2018-03-19T22:08:00.635Z,101609.05
2018-03-19T22:10:28.426Z,101605.44
2018-03-19T22:12:56.243Z,101605.70
2018-03-19T22:15:23.857Z,101603.92
2018-03-19T22:17:51.821Z,101604.91
2018-03-19T22:20:19.681Z,101596.98
2018-03-19T22:22:47.291Z,101594.81
2018-03-19T22:25:14.993Z,101579.80
2018-03-19T22:27:42.889Z,101584.64
2018-03-19T22:30:10.460Z,101578.31
2018-03-19T22:32:38.143Z,101570.08
2018-03-19T22:35:05.874Z,101578.55
2018-03-19T22:37:33.482Z,101573.81
2018-03-19T22:40:01.200Z,101576.75
2018-03-19T22:42:28.841Z,101569.66
2018-03-19T22:44:56.576Z,101564.12
2018-03-19T22:47:24.243Z,101557.99
2018-03-19T22:49:51.893Z,101559.09
2018-03-19T22:52:19.568Z,101559.78
2018-03-19T22:54:47.552Z,101564.89
2018-03-19T22:57:15.152Z,101565.61
2018-03-19T22:59:42.755Z,101556.39
2018-03-19T23:02:10.757Z,101550.10
2018-03-19T23:04:50.366Z,101552.27
2018-03-19T23:07:18.116Z,101560.27
2018-03-19T23:09:45.790Z,101558.11
2018-03-19T23:12:13.650Z,101559.36
2018-03-19T23:14:41.285Z,101548.56
2018-03-19T23:17:08.867Z,101538.40
2018-03-19T23:19:36.888Z,101540.95
2018-03-19T23:22:04.596Z,101544.34
2018-03-19T23:24:32.262Z,101539.07
2018-03-19T23:27:00.388Z,101536.17
2018-03-19T23:29:28.423Z,101538.31
2018-03-19T23:31:56.512Z,101537.58
2018-03-19T23:34:24.610Z,101532.01
2018-03-19T23:36:52.495Z,101526.86
2018-03-19T23:39:20.576Z,101526.51
2018-03-19T23:41:48.214Z,101523.61
2018-03-19T23:44:15.806Z,101521.84
2018-03-19T23:46:43.531Z,101520.59
2018-03-19T23:49:11.202Z,101519.48
2018-03-19T23:51:38.850Z,101519.98
2018-03-19T23:54:06.435Z,101518.41
2018-03-19T23:56:34.046Z,101514.59
2018-03-19T23:59:01.687Z,101506.84
